sensor_id;sensor_type;location;lat;lon;timestamp;pressure;altitude;pressure_sealevel;temperature;humidity
84590;BME280;76270;48.816;8.740;2024-03-07T00:02:02;95981.31;;;9.01;72.57
84590;BME280;76270;48.816;8.740;2024-03-07T00:04:04;95988.63;;;8.19;75.37
84590;BME280;76270;48.816;8.740;2024-03-07T00:06:09;95976.81;;;8.24;75.36
84590;BME280;76270;48.816;8.740;2024-03-07T00:08:13;95979.00;;;8.44;74.70
84590;BME280;76270;48.816;8.740;2024-03-07T00:10:16;95980.09;;;8.54;74.26
84590;BME280;76270;48.816;8.740;2024-03-07T00:12:18;95978.97;;;9.34;70.88
84590;BME280;76270;48.816;8.740;2024-03-07T00:14:20;95980.03;;;8.69;73.02
84590;BME280;76270;48.816;8.740;2024-03-07T00:16:22;95979.72;;;8.98;72.70
84590;BME280;76270;48.816;8.740;2024-03-07T00:18:24;95980.66;;;8.85;73.45
84590;BME280;76270;48.816;8.740;2024-03-07T00:20:26;95979.63;;;8.35;74.49
84590;BME280;76270;48.816;8.740;2024-03-07T00:22:28;95980.47;;;8.36;74.55
84590;BME280;76270;48.816;8.740;2024-03-07T00:24:31;95981.44;;;8.47;73.69
84590;BME280;76270;48.816;8.740;2024-03-07T00:26:33;95981.09;;;8.13;75.34
84590;BME280;76270;48.816;8.740;2024-03-07T00:28:35;95981.31;;;8.36;74.70
84590;BME280;76270;48.816;8.740;2024-03-07T00:30:41;95988.22;;;8.25;74.24
84590;BME280;76270;48.816;8.740;2024-03-07T00:32:45;95985.34;;;8.29;74.84
84590;BME280;76270;48.816;8.740;2024-03-07T00:34:48;95981.00;;;8.41;74.12
84590;BME280;76270;48.816;8.740;2024-03-07T00:36:50;95982.66;;;8.02;75.44
84590;BME280;76270;48.816;8.740;2024-03-07T00:38:53;95977.13;;;8.20;74.05
84590;BME280;76270;48.816;8.740;2024-03-07T00:40:55;95975.72;;;7.87;75.64
84590;BME280;76270;48.816;8.740;2024-03-07T00:42:56;95975.94;;;8.11;74.80
84590;BME280;76270;48.816;8.740;2024-03-07T00:45:00;95975.69;;;8.01;74.88
84590;BME280;76270;48.816;8.740;2024-03-07T00:47:02;95975.97;;;8.24;73.72
84590;BME280;76270;48.816;8.740;2024-03-07T00:49:07;95969.09;;;8.48;73.83
84590;BME280;76270;48.816;8.740;2024-03-07T00:51:12;95975.84;;;7.86;74.94
84590;BME280;76270;48.816;8.740;2024-03-07T00:53:14;95979.38;;;7.99;74.91
84590;BME280;76270;48.816;8.740;2024-03-07T00:55:19;95974.47;;;7.93;75.50
84590;BME280;76270;48.816;8.740;2024-03-07T00:57:20;95970.31;;;8.03;74.76
84590;BME280;76270;48.816;8.740;2024-03-07T00:59:22;95969.41;;;8.17;74.55
84590;BME280;76270;48.816;8.740;2024-03-07T01:01:24;95967.69;;;8.03;74.99
84590;BME280;76270;48.816;8.740;2024-03-07T01:03:25;95971.06;;;7.64;75.78
84590;BME280;76270;48.816;8.740;2024-03-07T01:05:28;95961.94;;;7.70;74.44
84590;BME280;76270;48.816;8.740;2024-03-07T01:07:31;95968.09;;;8.10;75.41
84590;BME280;76270;48.816;8.740;2024-03-07T01:09:33;95975.72;;;7.46;75.94
84590;BME280;76270;48.816;8.740;2024-03-07T01:11:36;95967.81;;;7.32;76.29
84590;BME280;76270;48.816;8.740;2024-03-07T01:13:39;95965.66;;;7.53;75.16
84590;BME280;76270;48.816;8.740;2024-03-07T01:15:41;95966.63;;;7.24;75.68
84590;BME280;76270;48.816;8.740;2024-03-07T01:17:43;95970.09;;;7.38;75.18
84590;BME280;76270;48.816;8.740;2024-03-07T01:19:46;95969.03;;;7.55;73.94
84590;BME280;76270;48.816;8.740;2024-03-07T01:21:48;95971.16;;;6.94;74.64
84590;BME280;76270;48.816;8.740;2024-03-07T01:23:50;95966.63;;;6.96;74.47
84590;BME280;76270;48.816;8.740;2024-03-07T01:25:52;95964.00;;;7.10;75.22
84590;BME280;76270;48.816;8.740;2024-03-07T01:27:54;95954.59;;;7.20;74.05
84590;BME280;76270;48.816;8.740;2024-03-07T01:29:57;95954.78;;;7.17;74.01
84590;BME280;76270;48.816;8.740;2024-03-07T01:32:00;95958.16;;;7.05;74.11
84590;BME280;76270;48.816;8.740;2024-03-07T01:34:02;95949.22;;;7.21;73.55
84590;BME280;76270;48.816;8.740;2024-03-07T01:36:07;95949.13;;;7.23;72.06
84590;BME280;76270;48.816;8.740;2024-03-07T01:38:09;95940.03;;;7.00;73.55
84590;BME280;76270;48.816;8.740;2024-03-07T01:40:12;95947.13;;;7.26;73.02
84590;BME280;76270;48.816;8.740;2024-03-07T01:42:15;95945.16;;;7.30;72.08
84590;BME280;76270;48.816;8.740;2024-03-07T01:44:17;95950.41;;;7.44;72.12
84590;BME280;76270;48.816;8.740;2024-03-07T01:46:19;95944.88;;;7.06;71.93
84590;BME280;76270;48.816;8.740;2024-03-07T01:48:28;95946.28;;;7.40;72.55
84590;BME280;76270;48.816;8.740;2024-03-07T01:50:30;95933.69;;;7.31;72.47
84590;BME280;76270;48.816;8.740;2024-03-07T01:52:33;95939.53;;;7.22;72.24
84590;BME280;76270;48.816;8.740;2024-03-07T01:54:35;95942.34;;;7.19;71.67
84590;BME280;76270;48.816;8.740;2024-03-07T01:56:38;95938.38;;;7.40;72.21
84590;BME280;76270;48.816;8.740;2024-03-07T01:58:40;95939.22;;;7.26;71.77
84590;BME280;76270;48.816;8.740;2024-03-07T02:00:43;95938.94;;;7.45;71.63
84590;BME280;76270;48.816;8.740;2024-03-07T02:02:45;95935.97;;;7.50;71.77
84590;BME280;76270;48.816;8.740;2024-03-07T02:04:48;95936.19;;;7.46;71.75
84590;BME280;76270;48.816;8.740;2024-03-07T02:06:50;95928.44;;;7.17;71.81
84590;BME280;76270;48.816;8.740;2024-03-07T02:08:52;95929.75;;;7.65;72.30
84590;BME280;76270;48.816;8.740;2024-03-07T02:10:54;95925.63;;;7.46;70.15
84590;BME280;76270;48.816;8.740;2024-03-07T02:12:55;95930.19;;;7.30;71.44
84590;BME280;76270;48.816;8.740;2024-03-07T02:14:57;95932.50;;;6.80;71.75
84590;BME280;76270;48.816;8.740;2024-03-07T02:17:00;95941.03;;;6.83;72.37
84590;BME280;76270;48.816;8.740;2024-03-07T02:19:05;95931.63;;;7.63;69.10
84590;BME280;76270;48.816;8.740;2024-03-07T02:21:08;95931.47;;;6.97;70.86
84590;BME280;76270;48.816;8.740;2024-03-07T02:23:17;95919.50;;;6.91;71.46
84590;BME280;76270;48.816;8.740;2024-03-07T02:25:19;95930.13;;;6.89;71.14
84590;BME280;76270;48.816;8.740;2024-03-07T02:27:24;95922.50;;;6.57;71.88
84590;BME280;76270;48.816;8.740;2024-03-07T02:29:29;95923.63;;;6.67;71.70
84590;BME280;76270;48.816;8.740;2024-03-07T02:31:35;95927.59;;;6.88;70.33
84590;BME280;76270;48.816;8.740;2024-03-07T02:33:40;95917.50;;;6.80;70.88
84590;BME280;76270;48.816;8.740;2024-03-07T02:35:46;95913.38;;;6.48;70.99
84590;BME280;76270;48.816;8.740;2024-03-07T02:37:49;95915.53;;;6.70;70.69
84590;BME280;76270;48.816;8.740;2024-03-07T02:39:50;95908.38;;;6.58;70.21
84590;BME280;76270;48.816;8.740;2024-03-07T02:41:53;95900.78;;;6.81;69.49
84590;BME280;76270;48.816;8.740;2024-03-07T02:43:54;95909.59;;;6.95;68.15
84590;BME280;76270;48.816;8.740;2024-03-07T02:45:56;95903.44;;;7.77;67.83
84590;BME280;76270;48.816;8.740;2024-03-07T02:47:59;95903.22;;;7.80;66.00
84590;BME280;76270;48.816;8.740;2024-03-07T02:50:01;95896.56;;;7.48;65.65
84590;BME280;76270;48.816;8.740;2024-03-07T02:52:03;95891.94;;;9.31;63.79
84590;BME280;76270;48.816;8.740;2024-03-07T02:54:09;95892.78;;;9.32;62.08
84590;BME280;76270;48.816;8.740;2024-03-07T02:56:11;95891.69;;;9.94;61.52
84590;BME280;76270;48.816;8.740;2024-03-07T02:58:13;95893.81;;;8.16;64.32
84590;BME280;76270;48.816;8.740;2024-03-07T03:00:16;95891.69;;;8.35;64.14
84590;BME280;76270;48.816;8.740;2024-03-07T03:02:22;95893.41;;;7.82;64.68
84590;BME280;76270;48.816;8.740;2024-03-07T03:04:24;95890.25;;;7.77;65.23
84590;BME280;76270;48.816;8.740;2024-03-07T03:06:26;95882.19;;;8.06;65.04
84590;BME280;76270;48.816;8.740;2024-03-07T03:08:28;95891.31;;;7.61;65.26
84590;BME280;76270;48.816;8.740;2024-03-07T03:10:30;95885.75;;;8.31;63.57
84590;BME280;76270;48.816;8.740;2024-03-07T03:12:33;95887.97;;;9.73;62.04
84590;BME280;76270;48.816;8.740;2024-03-07T03:14:34;95887.41;;;9.57;61.84
84590;BME280;76270;48.816;8.740;2024-03-07T03:16:41;95882.19;;;8.06;62.37
84590;BME280;76270;48.816;8.740;2024-03-07T03:18:49;95880.97;;;7.58;65.81
84590;BME280;76270;48.816;8.740;2024-03-07T03:20:51;95872.75;;;7.35;65.96
84590;BME280;76270;48.816;8.740;2024-03-07T03:22:57;95881.44;;;7.37;66.53
84590;BME280;76270;48.816;8.740;2024-03-07T03:25:19;95878.50;;;9.34;63.38
84590;BME280;76270;48.816;8.740;2024-03-07T03:27:22;95871.94;;;9.63;61.70
84590;BME280;76270;48.816;8.740;2024-03-07T03:29:24;95865.63;;;8.16;62.65
84590;BME280;76270;48.816;8.740;2024-03-07T03:31:25;95864.94;;;7.61;66.16
84590;BME280;76270;48.816;8.740;2024-03-07T03:33:27;95863.25;;;7.33;66.73
84590;BME280;76270;48.816;8.740;2024-03-07T03:35:29;95865.19;;;7.17;66.94
84590;BME280;76270;48.816;8.740;2024-03-07T03:37:33;95872.66;;;6.96;68.10
84590;BME280;76270;48.816;8.740;2024-03-07T03:39:35;95871.63;;;6.84;68.03
84590;BME280;76270;48.816;8.740;2024-03-07T03:41:39;95867.66;;;6.77;68.31
84590;BME280;76270;48.816;8.740;2024-03-07T03:43:41;95865.72;;;6.67;68.66
84590;BME280;76270;48.816;8.740;2024-03-07T03:45:43;95861.56;;;7.32;67.27
84590;BME280;76270;48.816;8.740;2024-03-07T03:47:45;95856.47;;;7.02;67.58
84590;BME280;76270;48.816;8.740;2024-03-07T03:49:47;95863.81;;;7.38;66.87
84590;BME280;76270;48.816;8.740;2024-03-07T03:51:49;95862.47;;;7.04;68.10
84590;BME280;76270;48.816;8.740;2024-03-07T03:53:50;95863.88;;;7.51;67.06
84590;BME280;76270;48.816;8.740;2024-03-07T03:55:53;95852.56;;;7.75;66.75
84590;BME280;76270;48.816;8.740;2024-03-07T03:57:55;95856.31;;;8.63;64.03
84590;BME280;76270;48.816;8.740;2024-03-07T03:59:57;95845.91;;;8.97;62.47
84590;BME280;76270;48.816;8.740;2024-03-07T04:01:59;95850.47;;;8.83;62.62
84590;BME280;76270;48.816;8.740;2024-03-07T04:04:04;95854.50;;;9.25;62.87
84590;BME280;76270;48.816;8.740;2024-03-07T04:06:10;95843.78;;;9.86;60.62
84590;BME280;76270;48.816;8.740;2024-03-07T04:08:15;95855.97;;;7.90;63.57
84590;BME280;76270;48.816;8.740;2024-03-07T04:10:20;95859.25;;;7.54;65.82
84590;BME280;76270;48.816;8.740;2024-03-07T04:12:24;95857.91;;;6.79;68.38
84590;BME280;76270;48.816;8.740;2024-03-07T04:14:29;95859.22;;;6.30;69.86
84590;BME280;76270;48.816;8.740;2024-03-07T04:16:36;95857.84;;;6.09;70.45
84590;BME280;76270;48.816;8.740;2024-03-07T04:18:37;95855.91;;;6.26;70.21
84590;BME280;76270;48.816;8.740;2024-03-07T04:20:42;95865.78;;;6.37;69.62
84590;BME280;76270;48.816;8.740;2024-03-07T04:22:48;95866.44;;;5.67;71.81
84590;BME280;76270;48.816;8.740;2024-03-07T04:24:53;95855.97;;;5.81;72.22
84590;BME280;76270;48.816;8.740;2024-03-07T04:27:00;95862.47;;;6.05;70.79
84590;BME280;76270;48.816;8.740;2024-03-07T04:29:08;95863.31;;;5.60;71.80
84590;BME280;76270;48.816;8.740;2024-03-07T04:31:10;95857.09;;;5.47;72.16
84590;BME280;76270;48.816;8.740;2024-03-07T04:33:14;95850.81;;;5.50;72.04
84590;BME280;76270;48.816;8.740;2024-03-07T04:35:16;95860.78;;;6.04;72.03
84590;BME280;76270;48.816;8.740;2024-03-07T04:37:20;95851.06;;;5.91;70.67
84590;BME280;76270;48.816;8.740;2024-03-07T04:39:23;95857.75;;;5.96;70.88
84590;BME280;76270;48.816;8.740;2024-03-07T04:41:37;95855.41;;;5.31;72.32
84590;BME280;76270;48.816;8.740;2024-03-07T04:43:42;95855.34;;;5.16;72.71
84590;BME280;76270;48.816;8.740;2024-03-07T04:45:49;95855.53;;;5.59;72.08
84590;BME280;76270;48.816;8.740;2024-03-07T04:47:54;95855.47;;;5.45;71.39
84590;BME280;76270;48.816;8.740;2024-03-07T04:49:55;95850.16;;;5.31;71.80
84590;BME280;76270;48.816;8.740;2024-03-07T04:51:58;95861.34;;;5.03;72.22
84590;BME280;76270;48.816;8.740;2024-03-07T04:54:00;95853.72;;;4.98;72.62
84590;BME280;76270;48.816;8.740;2024-03-07T04:56:02;95852.22;;;5.55;70.91
84590;BME280;76270;48.816;8.740;2024-03-07T04:58:04;95849.75;;;4.76;73.06
84590;BME280;76270;48.816;8.740;2024-03-07T05:00:07;95848.81;;;5.08;73.10
84590;BME280;76270;48.816;8.740;2024-03-07T05:02:10;95847.25;;;5.51;72.64
84590;BME280;76270;48.816;8.740;2024-03-07T05:04:13;95848.56;;;5.12;71.49
84590;BME280;76270;48.816;8.740;2024-03-07T05:06:15;95849.47;;;5.11;71.25
84590;BME280;76270;48.816;8.740;2024-03-07T05:08:18;95851.09;;;5.14;71.90
84590;BME280;76270;48.816;8.740;2024-03-07T05:10:19;95857.00;;;4.71;72.38
84590;BME280;76270;48.816;8.740;2024-03-07T05:12:22;95851.78;;;5.02;72.10
84590;BME280;76270;48.816;8.740;2024-03-07T05:14:24;95845.69;;;4.86;71.47
84590;BME280;76270;48.816;8.740;2024-03-07T05:16:30;95857.78;;;4.73;72.22
84590;BME280;76270;48.816;8.740;2024-03-07T05:18:33;95849.97;;;4.71;71.99
84590;BME280;76270;48.816;8.740;2024-03-07T05:20:34;95851.34;;;5.09;71.00
84590;BME280;76270;48.816;8.740;2024-03-07T05:22:37;95850.34;;;4.96;70.50
84590;BME280;76270;48.816;8.740;2024-03-07T05:24:42;95847.28;;;5.35;69.68
84590;BME280;76270;48.816;8.740;2024-03-07T05:26:44;95840.81;;;5.86;67.10
84590;BME280;76270;48.816;8.740;2024-03-07T05:28:47;95849.53;;;5.87;68.14
84590;BME280;76270;48.816;8.740;2024-03-07T05:30:48;95842.97;;;5.64;67.78
84590;BME280;76270;48.816;8.740;2024-03-07T05:32:51;95846.78;;;5.13;69.38
84590;BME280;76270;48.816;8.740;2024-03-07T05:34:53;95839.28;;;5.37;69.53
84590;BME280;76270;48.816;8.740;2024-03-07T05:36:55;95838.97;;;5.72;68.61
84590;BME280;76270;48.816;8.740;2024-03-07T05:38:58;95846.16;;;4.77;70.64
84590;BME280;76270;48.816;8.740;2024-03-07T05:40:59;95842.19;;;4.85;70.57
84590;BME280;76270;48.816;8.740;2024-03-07T05:43:02;95848.53;;;5.44;68.27
84590;BME280;76270;48.816;8.740;2024-03-07T05:45:05;95846.00;;;5.88;67.78
84590;BME280;76270;48.816;8.740;2024-03-07T05:47:09;95847.69;;;6.03;64.77
84590;BME280;76270;48.816;8.740;2024-03-07T05:49:12;95849.16;;;5.17;69.17
84590;BME280;76270;48.816;8.740;2024-03-07T05:51:15;95841.63;;;7.28;66.91
84590;BME280;76270;48.816;8.740;2024-03-07T05:53:17;95840.81;;;6.58;63.83
84590;BME280;76270;48.816;8.740;2024-03-07T05:55:19;95842.06;;;6.09;64.97
84590;BME280;76270;48.816;8.740;2024-03-07T05:57:23;95843.31;;;4.97;67.74
84590;BME280;76270;48.816;8.740;2024-03-07T05:59:25;95843.13;;;4.69;70.66
84590;BME280;76270;48.816;8.740;2024-03-07T06:01:31;95842.59;;;4.62;70.56
84590;BME280;76270;48.816;8.740;2024-03-07T06:03:35;95843.16;;;4.36;70.43
84590;BME280;76270;48.816;8.740;2024-03-07T06:05:39;95844.63;;;4.57;70.62
84590;BME280;76270;48.816;8.740;2024-03-07T06:07:45;95844.81;;;4.70;69.95
84590;BME280;76270;48.816;8.740;2024-03-07T06:09:50;95843.81;;;5.19;68.93
84590;BME280;76270;48.816;8.740;2024-03-07T06:11:52;95848.38;;;4.69;69.52
84590;BME280;76270;48.816;8.740;2024-03-07T06:13:56;95846.78;;;4.82;68.72
84590;BME280;76270;48.816;8.740;2024-03-07T06:16:03;95844.41;;;5.69;67.44
84590;BME280;76270;48.816;8.740;2024-03-07T06:18:09;95842.28;;;4.84;68.75
84590;BME280;76270;48.816;8.740;2024-03-07T06:20:14;95843.16;;;4.84;69.04
84590;BME280;76270;48.816;8.740;2024-03-07T06:22:24;95839.53;;;5.48;68.46
84590;BME280;76270;48.816;8.740;2024-03-07T06:24:29;95842.59;;;4.46;70.60
84590;BME280;76270;48.816;8.740;2024-03-07T06:26:37;95842.97;;;4.56;69.93
84590;BME280;76270;48.816;8.740;2024-03-07T06:28:48;95837.97;;;4.19;71.74
84590;BME280;76270;48.816;8.740;2024-03-07T06:30:50;95841.06;;;4.10;71.62
84590;BME280;76270;48.816;8.740;2024-03-07T06:32:52;95839.47;;;4.23;71.22
84590;BME280;76270;48.816;8.740;2024-03-07T06:34:54;95843.09;;;4.05;71.54
84590;BME280;76270;48.816;8.740;2024-03-07T06:36:59;95836.03;;;4.05;71.07
84590;BME280;76270;48.816;8.740;2024-03-07T06:39:03;95832.81;;;4.00;71.29
84590;BME280;76270;48.816;8.740;2024-03-07T06:41:24;95838.75;;;4.03;71.06
84590;BME280;76270;48.816;8.740;2024-03-07T06:43:26;95837.34;;;4.46;69.24
84590;BME280;76270;48.816;8.740;2024-03-07T06:45:28;95833.81;;;4.63;69.88
84590;BME280;76270;48.816;8.740;2024-03-07T06:47:30;95835.34;;;4.83;68.50
84590;BME280;76270;48.816;8.740;2024-03-07T06:49:32;95826.50;;;5.76;65.57
84590;BME280;76270;48.816;8.740;2024-03-07T06:51:34;95833.06;;;4.92;68.27
84590;BME280;76270;48.816;8.740;2024-03-07T06:53:36;95834.41;;;4.52;68.59
84590;BME280;76270;48.816;8.740;2024-03-07T06:55:37;95832.72;;;6.19;68.36
84590;BME280;76270;48.816;8.740;2024-03-07T06:57:40;95841.34;;;4.69;68.93
84590;BME280;76270;48.816;8.740;2024-03-07T06:59:41;95833.88;;;5.69;66.69
84590;BME280;76270;48.816;8.740;2024-03-07T07:01:43;95841.78;;;5.08;65.98
84590;BME280;76270;48.816;8.740;2024-03-07T07:03:45;95845.00;;;4.98;66.84
84590;BME280;76270;48.816;8.740;2024-03-07T07:05:48;95844.56;;;4.58;67.99
84590;BME280;76270;48.816;8.740;2024-03-07T07:07:50;95844.22;;;5.11;67.57
84590;BME280;76270;48.816;8.740;2024-03-07T07:09:55;95843.91;;;4.86;67.64
84590;BME280;76270;48.816;8.740;2024-03-07T07:11:57;95837.66;;;5.50;66.19
84590;BME280;76270;48.816;8.740;2024-03-07T07:14:01;95836.75;;;4.57;67.93
84590;BME280;76270;48.816;8.740;2024-03-07T07:16:04;95845.75;;;4.53;68.17
84590;BME280;76270;48.816;8.740;2024-03-07T07:18:06;95840.75;;;4.64;68.64
84590;BME280;76270;48.816;8.740;2024-03-07T07:20:09;95837.28;;;4.64;68.06
84590;BME280;76270;48.816;8.740;2024-03-07T07:22:12;95837.31;;;6.15;66.94
84590;BME280;76270;48.816;8.740;2024-03-07T07:24:14;95838.88;;;4.50;68.25
84590;BME280;76270;48.816;8.740;2024-03-07T07:26:16;95840.06;;;4.28;68.65
84590;BME280;76270;48.816;8.740;2024-03-07T07:28:18;95833.50;;;4.85;68.16
84590;BME280;76270;48.816;8.740;2024-03-07T07:30:22;95830.66;;;4.56;68.55
84590;BME280;76270;48.816;8.740;2024-03-07T07:32:24;95839.66;;;5.15;67.89
84590;BME280;76270;48.816;8.740;2024-03-07T07:34:26;95832.56;;;5.92;67.59
84590;BME280;76270;48.816;8.740;2024-03-07T07:36:28;95832.28;;;5.67;65.99
84590;BME280;76270;48.816;8.740;2024-03-07T07:38:31;95825.84;;;6.73;64.76
84590;BME280;76270;48.816;8.740;2024-03-07T07:40:33;95831.59;;;5.34;66.46
84590;BME280;76270;48.816;8.740;2024-03-07T07:42:36;95829.69;;;4.90;67.83
84590;BME280;76270;48.816;8.740;2024-03-07T07:44:40;95834.41;;;5.15;67.40
84590;BME280;76270;48.816;8.740;2024-03-07T07:46:42;95823.50;;;4.91;66.34
84590;BME280;76270;48.816;8.740;2024-03-07T07:48:44;95820.00;;;5.67;65.51
84590;BME280;76270;48.816;8.740;2024-03-07T07:50:49;95819.56;;;5.30;66.22
84590;BME280;76270;48.816;8.740;2024-03-07T07:52:55;95812.91;;;7.37;62.81
84590;BME280;76270;48.816;8.740;2024-03-07T07:54:57;95813.75;;;7.11;63.50
84590;BME280;76270;48.816;8.740;2024-03-07T07:56:59;95815.16;;;6.34;65.41
84590;BME280;76270;48.816;8.740;2024-03-07T07:59:01;95813.78;;;5.98;63.90
84590;BME280;76270;48.816;8.740;2024-03-07T08:01:05;95815.22;;;6.32;64.02
84590;BME280;76270;48.816;8.740;2024-03-07T08:03:10;95810.75;;;6.48;63.18
84590;BME280;76270;48.816;8.740;2024-03-07T08:05:12;95804.75;;;7.55;61.77
84590;BME280;76270;48.816;8.740;2024-03-07T08:07:18;95809.03;;;7.56;61.24
84590;BME280;76270;48.816;8.740;2024-03-07T08:09:20;95811.75;;;6.31;63.92
84590;BME280;76270;48.816;8.740;2024-03-07T08:11:22;95805.16;;;5.96;64.63
84590;BME280;76270;48.816;8.740;2024-03-07T08:13:25;95809.63;;;5.35;66.29
84590;BME280;76270;48.816;8.740;2024-03-07T08:15:30;95804.84;;;5.87;64.43
84590;BME280;76270;48.816;8.740;2024-03-07T08:17:32;95808.25;;;5.59;64.41
84590;BME280;76270;48.816;8.740;2024-03-07T08:19:34;95803.66;;;6.49;64.16
84590;BME280;76270;48.816;8.740;2024-03-07T08:21:36;95795.66;;;7.59;61.39
84590;BME280;76270;48.816;8.740;2024-03-07T08:23:38;95803.81;;;5.89;64.10
84590;BME280;76270;48.816;8.740;2024-03-07T08:25:40;95804.50;;;5.17;66.09
84590;BME280;76270;48.816;8.740;2024-03-07T08:27:44;95804.59;;;5.00;66.44
84590;BME280;76270;48.816;8.740;2024-03-07T08:29:47;95801.13;;;5.15;66.23
84590;BME280;76270;48.816;8.740;2024-03-07T08:31:49;95805.94;;;5.23;66.84
84590;BME280;76270;48.816;8.740;2024-03-07T08:33:51;95799.19;;;5.19;66.30
84590;BME280;76270;48.816;8.740;2024-03-07T08:35:53;95798.78;;;4.95;66.63
84590;BME280;76270;48.816;8.740;2024-03-07T08:37:55;95788.34;;;5.69;65.09
84590;BME280;76270;48.816;8.740;2024-03-07T08:39:59;95796.84;;;5.44;67.03
84590;BME280;76270;48.816;8.740;2024-03-07T08:42:01;95785.53;;;6.16;66.28
84590;BME280;76270;48.816;8.740;2024-03-07T08:44:03;95797.25;;;5.07;66.86
84590;BME280;76270;48.816;8.740;2024-03-07T08:46:05;95795.28;;;5.56;66.87
84590;BME280;76270;48.816;8.740;2024-03-07T08:48:07;95797.56;;;5.16;66.26
84590;BME280;76270;48.816;8.740;2024-03-07T08:50:12;95787.13;;;5.90;65.64
84590;BME280;76270;48.816;8.740;2024-03-07T08:52:14;95793.97;;;5.63;65.49
84590;BME280;76270;48.816;8.740;2024-03-07T08:54:18;95789.31;;;5.38;66.73
84590;BME280;76270;48.816;8.740;2024-03-07T08:56:21;95790.31;;;6.09;64.86
84590;BME280;76270;48.816;8.740;2024-03-07T08:58:23;95780.75;;;6.22;63.19
84590;BME280;76270;48.816;8.740;2024-03-07T09:00:25;95775.38;;;6.38;62.94
84590;BME280;76270;48.816;8.740;2024-03-07T09:02:28;95787.13;;;6.04;65.37
84590;BME280;76270;48.816;8.740;2024-03-07T09:04:31;95781.63;;;7.19;63.49
84590;BME280;76270;48.816;8.740;2024-03-07T09:06:32;95786.84;;;5.35;66.71
84590;BME280;76270;48.816;8.740;2024-03-07T09:08:35;95789.94;;;5.12;66.71
84590;BME280;76270;48.816;8.740;2024-03-07T09:10:38;95784.84;;;5.25;66.81
84590;BME280;76270;48.816;8.740;2024-03-07T09:12:46;95786.34;;;5.29;67.63
84590;BME280;76270;48.816;8.740;2024-03-07T09:14:51;95776.81;;;5.71;66.17
84590;BME280;76270;48.816;8.740;2024-03-07T09:16:59;95783.22;;;6.25;64.67
84590;BME280;76270;48.816;8.740;2024-03-07T09:19:01;95786.81;;;5.51;66.36
84590;BME280;76270;48.816;8.740;2024-03-07T09:21:04;95780.28;;;6.44;64.60
84590;BME280;76270;48.816;8.740;2024-03-07T09:23:06;95774.16;;;6.44;65.78
84590;BME280;76270;48.816;8.740;2024-03-07T09:25:08;95781.81;;;5.46;66.53
84590;BME280;76270;48.816;8.740;2024-03-07T09:27:11;95769.47;;;6.35;64.88
84590;BME280;76270;48.816;8.740;2024-03-07T09:29:13;95774.63;;;6.50;65.93
84590;BME280;76270;48.816;8.740;2024-03-07T09:31:15;95775.88;;;6.16;64.60
84590;BME280;76270;48.816;8.740;2024-03-07T09:33:17;95771.34;;;6.04;67.13
84590;BME280;76270;48.816;8.740;2024-03-07T09:35:21;95774.28;;;6.28;65.48
84590;BME280;76270;48.816;8.740;2024-03-07T09:37:23;95766.88;;;7.16;63.87
84590;BME280;76270;48.816;8.740;2024-03-07T09:39:25;95762.91;;;7.36;63.60
84590;BME280;76270;48.816;8.740;2024-03-07T09:41:28;95766.28;;;7.38;63.73
84590;BME280;76270;48.816;8.740;2024-03-07T09:43:31;95775.84;;;5.29;67.94
84590;BME280;76270;48.816;8.740;2024-03-07T09:45:37;95767.59;;;5.64;67.36
84590;BME280;76270;48.816;8.740;2024-03-07T09:47:39;95769.63;;;5.15;68.66
84590;BME280;76270;48.816;8.740;2024-03-07T09:49:41;95764.78;;;5.53;68.43
84590;BME280;76270;48.816;8.740;2024-03-07T09:51:44;95758.91;;;7.04;65.53
84590;BME280;76270;48.816;8.740;2024-03-07T09:53:48;95759.63;;;7.84;62.73
84590;BME280;76270;48.816;8.740;2024-03-07T09:55:51;95758.19;;;7.80;62.39
84590;BME280;76270;48.816;8.740;2024-03-07T09:57:54;95761.88;;;7.90;61.63
84590;BME280;76270;48.816;8.740;2024-03-07T09:59:58;95763.63;;;6.44;65.09
84590;BME280;76270;48.816;8.740;2024-03-07T10:02:03;95763.91;;;6.67;65.54
84590;BME280;76270;48.816;8.740;2024-03-07T10:04:11;95773.91;;;6.34;65.36
84590;BME280;76270;48.816;8.740;2024-03-07T10:06:15;95769.22;;;6.25;65.91
84590;BME280;76270;48.816;8.740;2024-03-07T10:08:17;95767.75;;;7.69;63.73
84590;BME280;76270;48.816;8.740;2024-03-07T10:10:20;95769.53;;;7.68;63.35
84590;BME280;76270;48.816;8.740;2024-03-07T10:12:23;95774.72;;;6.35;65.73
84590;BME280;76270;48.816;8.740;2024-03-07T10:14:25;95768.03;;;6.57;65.94
84590;BME280;76270;48.816;8.740;2024-03-07T10:16:27;95769.53;;;7.81;63.30
84590;BME280;76270;48.816;8.740;2024-03-07T10:18:28;95756.81;;;8.00;61.01
84590;BME280;76270;48.816;8.740;2024-03-07T10:20:31;95762.00;;;7.10;64.35
84590;BME280;76270;48.816;8.740;2024-03-07T10:22:33;95758.72;;;8.36;61.46
84590;BME280;76270;48.816;8.740;2024-03-07T10:24:34;95758.88;;;8.83;60.29
84590;BME280;76270;48.816;8.740;2024-03-07T10:26:39;95756.56;;;7.65;63.75
84590;BME280;76270;48.816;8.740;2024-03-07T10:28:42;95764.03;;;7.59;62.98
84590;BME280;76270;48.816;8.740;2024-03-07T10:30:44;95762.31;;;7.45;64.02
84590;BME280;76270;48.816;8.740;2024-03-07T10:32:47;95763.66;;;6.84;65.05
84590;BME280;76270;48.816;8.740;2024-03-07T10:34:53;95751.56;;;8.38;61.45
84590;BME280;76270;48.816;8.740;2024-03-07T10:36:55;95754.38;;;7.32;63.00
84590;BME280;76270;48.816;8.740;2024-03-07T10:39:00;95753.75;;;7.93;62.46
84590;BME280;76270;48.816;8.740;2024-03-07T10:41:05;95753.09;;;6.99;63.18
84590;BME280;76270;48.816;8.740;2024-03-07T10:43:10;95761.69;;;8.06;63.21
84590;BME280;76270;48.816;8.740;2024-03-07T10:45:15;95753.19;;;9.24;59.64
84590;BME280;76270;48.816;8.740;2024-03-07T10:47:20;95757.47;;;8.29;60.56
84590;BME280;76270;48.816;8.740;2024-03-07T10:49:25;95757.00;;;7.72;61.52
84590;BME280;76270;48.816;8.740;2024-03-07T10:51:40;95754.78;;;8.67;61.36
84590;BME280;76270;48.816;8.740;2024-03-07T10:53:59;95751.09;;;8.93;59.74
84590;BME280;76270;48.816;8.740;2024-03-07T10:58:23;95750.47;;;8.53;61.37
84590;BME280;76270;48.816;8.740;2024-03-07T11:00:30;95751.50;;;7.62;62.53
84590;BME280;76270;48.816;8.740;2024-03-07T11:02:46;95746.19;;;8.76;61.21
84590;BME280;76270;48.816;8.740;2024-03-07T11:04:48;95750.44;;;8.66;61.17